Time;durP1;ratioP1;P1;durP2;ratioP2;P2;SDS_P1;SDS_P2;PMS_P1;PMS_P2;Temp;Humidity;BMP_temperature;BMP_pressure;BME280_temperature;BME280_humidity;BME280_pressure;Samples;Min_cycle;Max_cycle;Signal;HPM_P1;HPM_P2
2021/01/01 00:00:39;;;;;;;23.85;13.23;;;4.60;99.90;;;;;;5056063;28;20213;-72
2021/01/01 00:03:06;;;;;;;22.13;14.90;;;4.70;99.90;;;;;;5055922;28;20206;-72
2021/01/01 00:05:33;;;;;;;40.47;17.48;;;4.70;99.90;;;;;;5054669;28;20295;-71
2021/01/01 00:07:59;;;;;;;31.65;16.50;;;4.70;99.90;;;;;;5055954;28;20319;-72
2021/01/01 00:10:26;;;;;;;28.52;14.38;;;4.50;99.90;;;;;;5055899;28;20290;-72
2021/01/01 00:12:52;;;;;;;25.20;14.02;;;4.60;99.90;;;;;;5055824;28;20203;-71
2021/01/01 00:15:18;;;;;;;39.25;19.58;;;4.50;99.90;;;;;;5055654;28;20227;-72
2021/01/01 00:17:45;;;;;;;32.38;15.82;;;4.30;99.90;;;;;;5055264;28;20226;-72
2021/01/01 00:20:12;;;;;;;30.05;17.45;;;4.30;99.90;;;;;;5055681;28;20678;-73
2021/01/01 00:22:41;;;;;;;25.15;15.45;;;4.20;99.90;;;;;;5055519;28;20207;-72
2021/01/01 00:25:08;;;;;;;27.58;13.77;;;4.30;99.90;;;;;;5055187;28;20206;-72
2021/01/01 00:27:35;;;;;;;25.40;12.68;;;4.30;99.90;;;;;;5055036;28;20239;-72
2021/01/01 00:30:04;;;;;;;28.48;12.13;;;4.50;99.90;;;;;;5055445;28;20329;-72
2021/01/01 00:32:30;;;;;;;20.98;11.40;;;4.60;99.90;;;;;;5055763;28;20565;-72
2021/01/01 00:34:56;;;;;;;27.08;11.00;;;4.70;99.90;;;;;;5055267;28;20697;-72
2021/01/01 00:37:24;;;;;;;22.63;11.10;;;4.90;99.90;;;;;;5055159;28;20314;-72
2021/01/01 00:39:50;;;;;;;22.95;11.05;;;5.00;99.90;;;;;;5055028;28;20286;-72
2021/01/01 00:42:16;;;;;;;17.00;10.60;;;5.00;99.90;;;;;;5055274;28;20298;-72
2021/01/01 00:44:42;;;;;;;18.70;9.75;;;5.00;99.90;;;;;;5055423;28;20290;-72
2021/01/01 00:47:09;;;;;;;17.85;10.23;;;5.00;99.90;;;;;;5054683;28;20318;-71
2021/01/01 00:49:36;;;;;;;22.50;11.88;;;5.00;99.90;;;;;;5055116;28;20207;-72
2021/01/01 00:52:03;;;;;;;25.23;14.05;;;4.80;99.90;;;;;;5054964;28;20257;-72
2021/01/01 00:54:30;;;;;;;19.33;12.40;;;4.90;99.90;;;;;;5054847;28;20246;-73
2021/01/01 00:56:57;;;;;;;21.98;12.30;;;4.80;99.90;;;;;;5054436;28;20726;-71
2021/01/01 00:59:23;;;;;;;21.63;11.45;;;4.90;99.90;;;;;;5054909;28;20290;-72
2021/01/01 01:01:49;;;;;;;21.38;11.80;;;4.70;99.90;;;;;;5054797;28;20295;-72
2021/01/01 01:04:16;;;;;;;24.15;13.50;;;4.60;99.90;;;;;;5054658;28;20205;-72
2021/01/01 01:06:42;;;;;;;32.78;14.18;;;4.50;99.90;;;;;;5054472;28;20289;-71
2021/01/01 01:09:08;;;;;;;23.17;12.25;;;4.60;99.90;;;;;;5054692;28;20299;-72
2021/01/01 01:11:36;;;;;;;39.15;25.13;;;4.80;99.90;;;;;;5054518;28;20200;-72
2021/01/01 01:14:02;;;;;;;22.77;13.38;;;4.60;99.90;;;;;;5054552;28;20314;-72
2021/01/01 01:16:30;;;;;;;21.85;11.57;;;4.50;99.90;;;;;;5053952;28;20208;-71
2021/01/01 01:18:57;;;;;;;18.60;11.02;;;4.60;99.90;;;;;;5054023;28;20223;-72
2021/01/01 01:21:24;;;;;;;19.15;10.10;;;4.70;99.90;;;;;;5054396;28;20293;-72
2021/01/01 01:23:51;;;;;;;24.77;10.40;;;4.80;99.90;;;;;;5054352;28;20203;-72
2021/01/01 01:26:18;;;;;;;21.85;11.18;;;4.90;99.90;;;;;;5054041;28;20203;-72
2021/01/01 01:28:45;;;;;;;12.95;7.55;;;5.10;99.90;;;;;;5053950;28;20231;-72
2021/01/01 01:31:11;;;;;;;15.40;8.65;;;5.10;99.90;;;;;;5054228;28;20298;-72
2021/01/01 01:33:38;;;;;;;15.40;7.15;;;5.20;99.90;;;;;;5054109;28;20680;-72
2021/01/01 01:36:04;;;;;;;14.95;7.05;;;5.30;99.90;;;;;;5053982;28;20687;-71
2021/01/01 01:38:31;;;;;;;12.27;5.45;;;5.40;99.90;;;;;;5053768;28;20700;-72
2021/01/01 01:40:57;;;;;;;10.68;5.25;;;5.40;99.90;;;;;;5053914;28;20211;-71
2021/01/01 01:43:25;;;;;;;8.23;4.85;;;5.40;99.90;;;;;;5054019;28;20245;-71
2021/01/01 01:45:55;;;;;;;11.05;4.97;;;5.50;99.90;;;;;;5053753;28;20204;-71
2021/01/01 01:48:25;;;;;;;8.82;5.10;;;5.50;99.90;;;;;;5053983;28;20310;-72
2021/01/01 01:50:52;;;;;;;9.55;5.18;;;5.60;99.90;;;;;;5053855;28;20207;-72
2021/01/01 01:53:20;;;;;;;9.80;4.90;;;5.50;99.90;;;;;;5053895;28;20203;-72
2021/01/01 01:55:46;;;;;;;9.05;5.13;;;5.60;99.90;;;;;;5053589;28;20226;-71
2021/01/01 01:58:13;;;;;;;7.97;4.68;;;5.60;99.90;;;;;;5053564;28;20229;-72
2021/01/01 02:00:57;;;;;;;9.73;5.40;;;5.60;99.90;;;;;;5053478;28;20253;-71
2021/01/01 02:03:25;;;;;;;9.30;5.18;;;5.70;99.90;;;;;;5053544;28;20207;-72
2021/01/01 02:05:51;;;;;;;9.63;5.07;;;5.70;99.90;;;;;;5053248;28;20210;-71
2021/01/01 02:08:18;;;;;;;7.43;4.25;;;5.70;99.90;;;;;;5053603;28;20223;-72
2021/01/01 02:10:45;;;;;;;8.65;4.82;;;5.70;99.90;;;;;;5053630;28;20687;-72
2021/01/01 02:13:12;;;;;;;10.80;5.60;;;5.70;99.90;;;;;;5053496;28;20287;-72
2021/01/01 02:15:39;;;;;;;12.05;5.75;;;5.70;99.90;;;;;;5053420;28;20588;-71
2021/01/01 02:18:05;;;;;;;7.05;5.00;;;5.80;99.90;;;;;;5053537;28;20220;-72
2021/01/01 02:20:32;;;;;;;7.57;4.85;;;5.80;99.90;;;;;;5053484;28;20256;-71
2021/01/01 02:22:59;;;;;;;8.65;5.18;;;5.80;99.90;;;;;;5053330;28;20203;-72
2021/01/01 02:25:26;;;;;;;7.28;4.70;;;5.80;99.90;;;;;;5053468;28;20199;-72
2021/01/01 02:27:52;;;;;;;7.93;5.60;;;5.80;99.90;;;;;;5052990;28;20227;-72
2021/01/01 02:30:19;;;;;;;8.85;5.45;;;5.80;99.90;;;;;;5057674;28;20298;-72
2021/01/01 02:32:45;;;;;;;9.93;4.95;;;5.80;99.90;;;;;;5057574;28;20623;-72
2021/01/01 02:35:12;;;;;;;7.38;4.90;;;5.90;99.90;;;;;;5057315;28;20229;-72
2021/01/01 02:37:39;;;;;;;11.75;5.80;;;5.90;99.90;;;;;;5057186;28;20223;-71
2021/01/01 02:40:08;;;;;;;10.45;5.70;;;6.00;99.90;;;;;;5057470;28;20290;-72
2021/01/01 02:42:35;;;;;;;9.55;5.00;;;5.90;99.90;;;;;;5057345;28;20207;-72
2021/01/01 02:45:02;;;;;;;7.60;4.35;;;5.90;99.90;;;;;;5057169;28;20653;-72
2021/01/01 02:47:28;;;;;;;6.85;5.28;;;5.90;99.90;;;;;;5057069;28;20337;-71
2021/01/01 02:49:55;;;;;;;8.63;5.60;;;5.90;99.90;;;;;;5057000;28;20711;-72
2021/01/01 02:52:21;;;;;;;10.43;5.30;;;5.90;99.90;;;;;;5057563;28;20203;-72
2021/01/01 02:54:47;;;;;;;7.05;5.28;;;5.90;99.90;;;;;;5057071;28;20234;-71
2021/01/01 02:57:14;;;;;;;6.97;4.50;;;5.90;99.90;;;;;;5056953;28;20562;-71
2021/01/01 02:59:41;;;;;;;8.07;5.10;;;5.90;99.90;;;;;;5057087;28;20256;-72
2021/01/01 03:02:07;;;;;;;8.80;4.45;;;5.90;99.90;;;;;;5057033;28;20298;-71
2021/01/01 03:04:33;;;;;;;10.15;4.50;;;5.90;99.90;;;;;;5056821;28;20290;-71
2021/01/01 03:07:00;;;;;;;9.75;5.20;;;5.90;99.90;;;;;;5056481;28;20303;-71
2021/01/01 03:09:26;;;;;;;8.00;4.60;;;5.90;99.90;;;;;;5056913;28;20226;-71
2021/01/01 03:11:52;;;;;;;9.05;4.85;;;5.90;99.90;;;;;;5056652;28;20353;-72
2021/01/01 03:14:19;;;;;;;9.93;4.47;;;6.10;99.90;;;;;;5056769;28;20227;-72
2021/01/01 03:16:46;;;;;;;11.38;5.47;;;6.10;99.90;;;;;;5056618;28;20203;-71
2021/01/01 03:19:12;;;;;;;8.30;5.10;;;6.00;99.90;;;;;;5056531;28;20238;-72
2021/01/01 03:21:38;;;;;;;7.85;4.95;;;5.90;99.90;;;;;;5056733;28;20286;-72
2021/01/01 03:24:05;;;;;;;10.88;5.65;;;5.90;99.90;;;;;;5056661;28;20618;-72
2021/01/01 03:26:32;;;;;;;7.65;5.20;;;5.90;99.90;;;;;;5056267;28;20668;-71
2021/01/01 03:28:58;;;;;;;8.88;4.80;;;5.90;99.90;;;;;;5056409;28;20238;-72
2021/01/01 03:31:25;;;;;;;10.50;5.00;;;5.80;99.90;;;;;;5056491;28;20294;-72
2021/01/01 03:33:51;;;;;;;8.05;4.60;;;5.80;99.90;;;;;;5056384;28;20298;-72
2021/01/01 03:36:18;;;;;;;8.93;5.43;;;5.80;99.90;;;;;;5056104;28;20298;-71
2021/01/01 03:38:46;;;;;;;12.63;6.60;;;5.70;99.90;;;;;;5056004;28;20314;-72
2021/01/01 03:41:13;;;;;;;12.20;7.45;;;5.50;99.90;;;;;;5056053;28;20210;-72
2021/01/01 03:43:39;;;;;;;9.65;5.50;;;5.50;99.90;;;;;;5056297;28;20235;-72
2021/01/01 03:46:05;;;;;;;10.82;5.28;;;5.40;99.90;;;;;;5055947;28;20602;-72
2021/01/01 03:48:33;;;;;;;9.63;5.55;;;5.50;99.90;;;;;;5056159;28;20223;-72
2021/01/01 03:50:59;;;;;;;13.48;6.05;;;5.50;99.90;;;;;;5056076;28;20295;-72
2021/01/01 03:53:26;;;;;;;8.70;5.45;;;5.50;99.90;;;;;;5056065;28;20207;-72
2021/01/01 03:55:52;;;;;;;9.60;5.35;;;5.60;99.90;;;;;;5055601;28;20314;-72
2021/01/01 03:58:18;;;;;;;8.65;4.55;;;5.70;99.90;;;;;;5056264;28;20314;-72
2021/01/01 04:00:44;;;;;;;9.10;5.43;;;5.80;99.90;;;;;;5056189;28;20298;-72
2021/01/01 04:03:11;;;;;;;8.07;4.75;;;5.80;99.90;;;;;;5056246;28;20298;-72
2021/01/01 04:05:38;;;;;;;7.72;4.20;;;5.90;99.90;;;;;;5055873;28;20298;-71
2021/01/01 04:08:05;;;;;;;6.03;4.00;;;5.90;99.90;;;;;;5055815;28;20319;-72
2021/01/01 04:10:31;;;;;;;8.40;4.00;;;6.00;99.90;;;;;;5055735;28;20207;-72
2021/01/01 04:12:57;;;;;;;5.28;3.67;;;5.90;99.90;;;;;;5055737;28;20294;-72
2021/01/01 04:15:23;;;;;;;9.18;4.18;;;5.80;99.90;;;;;;5055586;28;20249;-72
2021/01/01 04:17:50;;;;;;;8.75;4.60;;;5.70;99.90;;;;;;5055470;28;20231;-71
2021/01/01 04:20:16;;;;;;;6.53;3.35;;;5.50;99.90;;;;;;5055744;28;20294;-72
2021/01/01 04:22:44;;;;;;;5.70;3.63;;;5.40;99.90;;;;;;5055715;28;20289;-72
2021/01/01 04:25:11;;;;;;;7.90;4.53;;;5.50;99.90;;;;;;5055548;28;20310;-72
2021/01/01 04:27:37;;;;;;;8.68;4.43;;;5.60;99.90;;;;;;5055123;28;20231;-72
2021/01/01 04:30:05;;;;;;;6.63;4.20;;;5.70;99.90;;;;;;5055641;28;20298;-72
2021/01/01 04:32:31;;;;;;;8.80;4.50;;;5.80;99.90;;;;;;5055313;28;20204;-72
2021/01/01 04:35:00;;;;;;;7.60;4.25;;;5.70;99.90;;;;;;5055201;28;20720;-72
2021/01/01 04:37:26;;;;;;;10.07;4.95;;;5.70;99.90;;;;;;5055157;28;20357;-72
2021/01/01 04:39:54;;;;;;;8.88;3.80;;;5.70;99.90;;;;;;5055252;28;20266;-72
2021/01/01 04:42:21;;;;;;;5.15;3.78;;;5.70;99.90;;;;;;5055190;28;20309;-72
2021/01/01 04:44:48;;;;;;;5.53;3.65;;;5.70;99.90;;;;;;5054919;28;20210;-72
2021/01/01 04:47:15;;;;;;;5.47;3.75;;;5.70;99.90;;;;;;5054662;28;20335;-71
2021/01/01 04:49:42;;;;;;;3.95;3.15;;;5.60;99.90;;;;;;5055050;28;20295;-71
2021/01/01 04:52:09;;;;;;;4.85;4.00;;;5.60;99.90;;;;;;5054527;28;20568;-72
2021/01/01 04:54:36;;;;;;;4.68;3.00;;;5.60;99.90;;;;;;5054862;28;20687;-72
2021/01/01 04:57:03;;;;;;;5.82;3.38;;;5.70;99.90;;;;;;5054629;28;20612;-72
2021/01/01 04:59:30;;;;;;;8.13;3.80;;;5.80;99.90;;;;;;5054556;28;20203;-72
2021/01/01 05:01:56;;;;;;;7.18;3.75;;;5.80;99.90;;;;;;5054707;28;20203;-72
2021/01/01 05:04:22;;;;;;;8.40;4.05;;;5.90;99.90;;;;;;5054448;28;20286;-72
2021/01/01 05:06:49;;;;;;;6.10;4.53;;;5.90;99.90;;;;;;5054688;28;20295;-71
2021/01/01 05:09:15;;;;;;;9.27;4.47;;;6.00;99.90;;;;;;5054762;28;20310;-72
2021/01/01 05:11:41;;;;;;;8.80;4.63;;;6.00;99.90;;;;;;5054714;28;20214;-72
2021/01/01 05:14:09;;;;;;;7.15;3.88;;;6.00;99.90;;;;;;5054520;28;20290;-72
2021/01/01 05:16:36;;;;;;;7.53;4.03;;;6.00;99.90;;;;;;5054182;28;20578;-71
2021/01/01 05:19:13;;;;;;;5.95;4.10;;;6.00;99.90;;;;;;5054556;28;20618;-72
2021/01/01 05:21:39;;;;;;;7.03;4.22;;;6.10;99.90;;;;;;5054208;28;20200;-72
2021/01/01 05:24:07;;;;;;;12.90;5.00;;;6.10;99.90;;;;;;5054276;28;20294;-72
2021/01/01 05:26:34;;;;;;;10.23;4.35;;;6.00;99.90;;;;;;5054130;28;20207;-71
2021/01/01 05:29:06;;;;;;;7.05;3.92;;;6.00;99.90;;;;;;5053944;28;20221;-72
2021/01/01 05:31:34;;;;;;;7.57;4.47;;;5.90;99.90;;;;;;5054171;28;20740;-72
2021/01/01 05:34:02;;;;;;;10.23;4.57;;;5.90;99.90;;;;;;5054120;28;20204;-72
2021/01/01 05:36:37;;;;;;;8.30;4.90;;;5.80;99.90;;;;;;5053880;28;20289;-71
2021/01/01 05:39:07;;;;;;;8.85;4.45;;;5.70;99.90;;;;;;5054169;28;20253;-71
2021/01/01 05:41:36;;;;;;;8.38;4.80;;;5.80;99.90;;;;;;5054097;28;20211;-72
2021/01/01 05:44:16;;;;;;;7.13;5.20;;;5.80;99.90;;;;;;5054021;28;20204;-71
2021/01/01 05:47:06;;;;;;;7.68;4.95;;;5.80;99.90;;;;;;5053776;28;20338;-71
2021/01/01 05:49:34;;;;;;;8.07;4.45;;;6.00;99.90;;;;;;5054025;28;20612;-72
2021/01/01 05:52:08;;;;;;;8.40;4.25;;;6.00;99.90;;;;;;5053816;28;20207;-72
2021/01/01 05:54:35;;;;;;;7.35;4.20;;;6.00;99.90;;;;;;5053654;28;20227;-72
2021/01/01 05:57:04;;;;;;;8.35;5.63;;;6.00;99.90;;;;;;5053533;28;20234;-71
2021/01/01 05:59:35;;;;;;;9.90;4.78;;;6.00;99.90;;;;;;5053848;28;20203;-72
2021/01/01 06:02:03;;;;;;;10.25;5.57;;;6.00;99.90;;;;;;5053574;28;20294;-72
2021/01/01 06:04:30;;;;;;;12.18;5.25;;;6.00;99.90;;;;;;5052910;28;20206;-71
2021/01/01 06:07:00;;;;;;;9.18;5.00;;;6.00;99.90;;;;;;5053357;28;20244;-71
2021/01/01 06:09:29;;;;;;;8.10;5.00;;;5.90;99.90;;;;;;5053898;28;20199;-72
2021/01/01 06:12:04;;;;;;;9.30;5.53;;;5.80;99.90;;;;;;5053698;28;20569;-72
2021/01/01 06:14:36;;;;;;;9.10;5.80;;;5.60;99.90;;;;;;5053582;28;20219;-72
2021/01/01 06:17:20;;;;;;;8.73;4.55;;;5.50;99.90;;;;;;5053210;28;20219;-72
2021/01/01 06:19:52;;;;;;;8.68;4.97;;;5.60;99.90;;;;;;5053639;28;20218;-72
2021/01/01 06:22:20;;;;;;;9.05;5.22;;;5.50;99.90;;;;;;5053512;28;20199;-72
2021/01/01 06:24:49;;;;;;;10.95;5.72;;;5.50;99.90;;;;;;5053523;28;20276;-72
2021/01/01 06:27:17;;;;;;;9.27;4.80;;;5.40;99.90;;;;;;5053002;28;20231;-72
2021/01/01 06:29:46;;;;;;;9.27;4.68;;;5.20;99.90;;;;;;5053222;28;20673;-72
2021/01/01 06:32:13;;;;;;;10.90;5.50;;;5.00;99.90;;;;;;5053455;28;20199;-72
2021/01/01 06:34:39;;;;;;;8.68;4.65;;;4.70;99.90;;;;;;5053458;28;20322;-71
2021/01/01 06:37:07;;;;;;;8.35;4.22;;;4.70;99.90;;;;;;5053116;28;20230;-71
2021/01/01 06:39:37;;;;;;;11.77;4.63;;;4.80;99.90;;;;;;5053188;28;20261;-72
2021/01/01 06:42:04;;;;;;;9.18;3.90;;;4.70;99.90;;;;;;5053333;28;20207;-72
2021/01/01 06:44:41;;;;;;;5.50;3.55;;;4.80;99.90;;;;;;5053098;28;20200;-72
2021/01/01 06:47:08;;;;;;;9.82;4.05;;;4.90;99.90;;;;;;5053076;28;20318;-71
2021/01/01 06:49:37;;;;;;;6.30;4.00;;;5.00;99.90;;;;;;5053351;28;20539;-72
2021/01/01 06:52:12;;;;;;;8.07;3.70;;;5.10;99.90;;;;;;5053282;28;20199;-71
2021/01/01 06:54:58;;;;;;;3.60;2.95;;;5.10;99.90;;;;;;5052959;28;20748;-72
2021/01/01 06:57:27;;;;;;;6.05;3.75;;;5.20;99.90;;;;;;5053022;28;20222;-71
2021/01/01 06:59:54;;;;;;;6.00;3.00;;;5.30;99.90;;;;;;5053279;28;20203;-72
2021/01/01 07:02:23;;;;;;;5.78;3.50;;;5.30;99.90;;;;;;5053183;28;20215;-72
2021/01/01 07:04:50;;;;;;;11.10;5.88;;;5.30;99.90;;;;;;5053006;28;20204;-71
2021/01/01 07:07:43;;;;;;;4.15;2.90;;;5.30;99.90;;;;;;5052990;28;20625;-71
2021/01/01 07:10:14;;;;;;;3.95;2.28;;;5.00;99.90;;;;;;5053096;28;20290;-72
2021/01/01 07:12:41;;;;;;;5.72;2.80;;;4.80;99.90;;;;;;5053099;28;20203;-72
2021/01/01 07:15:33;;;;;;;4.63;2.90;;;4.80;99.90;;;;;;5054967;28;20230;-72
2021/01/01 07:18:00;;;;;;;4.30;2.03;;;4.80;99.90;;;;;;5056857;28;20277;-71
2021/01/01 07:20:27;;;;;;;5.55;2.50;;;4.90;99.90;;;;;;5056722;28;20204;-72
2021/01/01 07:22:58;;;;;;;3.42;2.60;;;4.80;99.90;;;;;;5056759;28;20204;-72
2021/01/01 07:25:38;;;;;;;4.10;2.10;;;4.90;99.90;;;;;;5056579;28;20205;-72
2021/01/01 07:28:06;;;;;;;2.88;1.90;;;4.90;99.90;;;;;;5056363;28;20237;-72
2021/01/01 07:30:34;;;;;;;4.53;2.05;;;4.90;99.90;;;;;;5056580;28;20208;-72
2021/01/01 07:33:01;;;;;;;5.40;2.80;;;4.70;99.90;;;;;;5056564;28;20233;-72
2021/01/01 07:35:28;;;;;;;3.40;2.08;;;4.60;99.90;;;;;;5056415;28;20597;-71
2021/01/01 07:37:55;;;;;;;3.90;2.30;;;4.60;99.90;;;;;;5056271;28;20314;-71
2021/01/01 07:40:22;;;;;;;6.50;2.70;;;4.70;99.90;;;;;;5056355;28;20200;-71
2021/01/01 07:42:49;;;;;;;4.32;2.20;;;4.80;99.90;;;;;;5056079;28;20203;-71
2021/01/01 07:45:16;;;;;;;3.17;2.10;;;4.90;99.90;;;;;;5056215;28;20200;-72
2021/01/01 07:47:44;;;;;;;2.88;2.28;;;4.90;99.90;;;;;;5055917;28;20225;-71
2021/01/01 07:50:14;;;;;;;4.13;2.50;;;4.80;99.90;;;;;;5056284;28;20208;-72
2021/01/01 07:52:41;;;;;;;6.55;2.35;;;4.90;99.90;;;;;;5056014;28;20252;-72
2021/01/01 07:55:08;;;;;;;3.30;2.47;;;4.90;99.90;;;;;;5056092;28;20235;-72
2021/01/01 07:57:37;;;;;;;4.57;2.50;;;4.90;99.90;;;;;;5055956;28;20223;-71
2021/01/01 08:00:06;;;;;;;5.97;2.35;;;5.00;99.90;;;;;;5056024;28;20214;-72
2021/01/01 08:02:32;;;;;;;4.15;2.25;;;4.90;99.90;;;;;;5056114;28;20214;-72
2021/01/01 08:05:01;;;;;;;2.58;2.33;;;4.80;99.90;;;;;;5055948;28;20202;-72
2021/01/01 08:07:28;;;;;;;3.15;2.60;;;4.90;99.90;;;;;;5055575;28;20227;-71
2021/01/01 08:09:54;;;;;;;3.35;2.40;;;4.90;99.90;;;;;;5055953;28;20199;-72
2021/01/01 08:12:20;;;;;;;5.05;2.75;;;4.80;99.90;;;;;;5055898;28;20641;-72
2021/01/01 08:14:52;;;;;;;4.38;2.38;;;4.80;99.90;;;;;;5055744;28;20404;-72
2021/01/01 08:17:19;;;;;;;4.07;2.28;;;4.90;99.90;;;;;;5055400;28;20230;-72
2021/01/01 08:19:46;;;;;;;3.85;2.35;;;5.10;99.90;;;;;;5055447;28;20669;-72
2021/01/01 08:22:14;;;;;;;3.72;2.47;;;5.10;99.90;;;;;;5055799;28;20294;-72
2021/01/01 08:24:43;;;;;;;5.00;3.10;;;5.20;99.90;;;;;;5055794;28;20195;-72
2021/01/01 08:27:12;;;;;;;5.32;2.70;;;5.20;99.90;;;;;;5054207;28;20231;-73
2021/01/01 08:29:40;;;;;;;5.50;3.28;;;5.20;99.90;;;;;;5055235;28;20722;-72
2021/01/01 08:32:07;;;;;;;4.13;2.63;;;5.30;99.90;;;;;;5055380;28;20203;-72
2021/01/01 08:34:35;;;;;;;3.38;2.25;;;5.30;99.90;;;;;;5055246;28;20211;-72
2021/01/01 08:37:03;;;;;;;4.15;2.90;;;5.30;99.90;;;;;;5055203;28;20227;-71
2021/01/01 08:39:29;;;;;;;4.18;2.90;;;5.30;99.90;;;;;;5054970;28;20218;-72
2021/01/01 08:41:57;;;;;;;4.82;3.00;;;5.20;99.90;;;;;;5055050;28;20290;-72
2021/01/01 08:44:25;;;;;;;3.63;1.85;;;5.30;99.90;;;;;;5055207;28;20574;-72
2021/01/01 08:46:58;;;;;;;5.22;2.90;;;5.40;99.90;;;;;;5054647;28;20207;-71
2021/01/01 08:49:32;;;;;;;5.00;2.38;;;5.40;99.90;;;;;;5055091;28;20234;-72
2021/01/01 08:52:09;;;;;;;4.60;2.42;;;5.50;99.90;;;;;;5054832;28;20670;-72
2021/01/01 08:54:35;;;;;;;4.78;2.80;;;5.50;99.90;;;;;;5055130;28;20211;-72
2021/01/01 08:57:02;;;;;;;3.03;2.33;;;5.50;99.90;;;;;;5054494;28;20248;-72
2021/01/01 08:59:29;;;;;;;3.40;2.50;;;5.60;99.90;;;;;;5054887;28;20214;-72
2021/01/01 09:01:56;;;;;;;6.95;2.65;;;5.70;99.90;;;;;;5054835;28;20207;-72
2021/01/01 09:04:27;;;;;;;4.13;2.45;;;5.70;99.90;;;;;;5054762;28;20200;-72
2021/01/01 09:06:58;;;;;;;13.10;4.78;;;5.60;99.90;;;;;;5054381;28;20295;-71
2021/01/01 09:09:29;;;;;;;9.65;5.18;;;5.50;99.90;;;;;;5054939;28;20545;-72
2021/01/01 09:12:15;;;;;;;13.57;6.05;;;5.40;99.90;;;;;;5054625;28;20207;-72
2021/01/01 09:14:43;;;;;;;7.20;3.65;;;5.40;99.90;;;;;;5054417;28;20215;-72
2021/01/01 09:17:10;;;;;;;7.30;3.47;;;5.40;99.90;;;;;;5054186;28;20223;-72
2021/01/01 09:19:37;;;;;;;6.72;3.85;;;5.50;99.90;;;;;;5054926;28;20215;-72
2021/01/01 09:22:17;;;;;;;5.35;2.80;;;5.60;99.90;;;;;;5054450;28;20322;-72
2021/01/01 09:24:45;;;;;;;2.75;2.33;;;5.70;99.90;;;;;;5054217;28;20205;-72
2021/01/01 09:27:12;;;;;;;6.15;3.20;;;5.60;99.90;;;;;;5054037;28;20601;-72
2021/01/01 09:29:39;;;;;;;4.80;2.80;;;5.70;99.90;;;;;;5054879;28;20190;-73
2021/01/01 09:32:06;;;;;;;4.93;2.47;;;5.70;99.90;;;;;;5054518;28;20229;-73
2021/01/01 09:34:32;;;;;;;2.65;1.90;;;5.80;99.90;;;;;;5054341;28;20207;-73
2021/01/01 09:37:06;;;;;;;3.80;2.47;;;5.90;99.90;;;;;;5053954;28;20318;-71
2021/01/01 09:39:33;;;;;;;2.67;2.13;;;5.90;99.90;;;;;;5054772;28;20557;-72
2021/01/01 09:41:59;;;;;;;3.28;1.95;;;5.80;99.90;;;;;;5054278;28;20290;-72
2021/01/01 09:44:25;;;;;;;3.20;2.00;;;5.90;99.90;;;;;;5054151;28;20565;-72
2021/01/01 09:46:52;;;;;;;3.70;2.22;;;6.00;99.90;;;;;;5053817;28;20299;-72
2021/01/01 09:49:19;;;;;;;2.42;1.85;;;6.00;99.90;;;;;;5054144;28;20207;-72
2021/01/01 09:51:46;;;;;;;5.22;2.40;;;6.00;99.90;;;;;;5054107;28;20203;-72
2021/01/01 09:54:13;;;;;;;3.63;2.45;;;5.90;99.90;;;;;;5054090;28;20217;-72
2021/01/01 09:56:39;;;;;;;4.30;2.00;;;5.80;99.90;;;;;;5053450;28;20223;-72
2021/01/01 09:59:06;;;;;;;5.28;2.58;;;5.90;99.90;;;;;;5054196;28;20203;-72
2021/01/01 10:01:32;;;;;;;2.60;2.10;;;5.90;99.90;;;;;;5054069;28;20573;-72
2021/01/01 10:03:59;;;;;;;3.15;2.00;;;6.00;99.90;;;;;;5053727;28;20290;-72
2021/01/01 10:06:26;;;;;;;3.15;1.88;;;5.90;99.90;;;;;;5053549;28;20206;-71
2021/01/01 10:08:52;;;;;;;2.03;1.67;;;6.00;99.90;;;;;;5053558;28;20254;-72
2021/01/01 10:11:19;;;;;;;2.90;1.77;;;5.90;99.90;;;;;;5053718;28;20200;-72
2021/01/01 10:13:46;;;;;;;3.67;1.60;;;6.00;99.90;;;;;;5053532;28;20290;-72
2021/01/01 10:16:12;;;;;;;4.03;2.38;;;5.80;99.90;;;;;;5053367;28;20223;-71
2021/01/01 10:18:40;;;;;;;1.92;1.48;;;5.80;99.90;;;;;;5053752;28;20301;-72
2021/01/01 10:21:08;;;;;;;3.45;2.30;;;5.80;99.90;;;;;;5053861;28;20203;-72
2021/01/01 10:23:34;;;;;;;4.15;2.05;;;5.90;99.90;;;;;;5053735;28;20313;-72
2021/01/01 10:26:00;;;;;;;2.53;1.70;;;6.00;99.90;;;;;;5053461;28;20225;-71
2021/01/01 10:28:27;;;;;;;3.22;1.80;;;5.80;99.90;;;;;;5053161;28;20739;-72
2021/01/01 10:30:55;;;;;;;3.22;2.03;;;5.60;99.90;;;;;;5053539;28;20623;-72
2021/01/01 10:33:22;;;;;;;3.47;1.85;;;5.50;99.90;;;;;;5053524;28;20225;-72
2021/01/01 10:35:48;;;;;;;3.25;1.75;;;5.60;99.90;;;;;;5052869;28;20780;-71
2021/01/01 10:38:14;;;;;;;2.00;1.67;;;5.80;99.90;;;;;;5053352;28;20314;-72
2021/01/01 10:40:41;;;;;;;3.72;1.80;;;5.90;99.90;;;;;;5053357;28;20606;-72
2021/01/01 10:43:07;;;;;;;3.30;2.00;;;6.00;99.90;;;;;;5053360;28;20290;-72
2021/01/01 10:45:34;;;;;;;3.78;2.45;;;6.20;99.90;;;;;;5053193;28;20289;-72
2021/01/01 10:48:00;;;;;;;3.38;2.15;;;6.10;99.90;;;;;;5052999;28;20588;-72
2021/01/01 10:50:27;;;;;;;3.92;2.42;;;6.00;99.90;;;;;;5055781;28;20744;-72
2021/01/01 10:52:54;;;;;;;4.35;1.77;;;5.90;99.90;;;;;;5057311;28;20206;-72
2021/01/01 10:55:20;;;;;;;3.20;2.00;;;5.70;99.90;;;;;;5057214;28;20250;-72
2021/01/01 10:57:46;;;;;;;3.28;1.95;;;5.70;99.90;;;;;;5056810;28;20227;-71
2021/01/01 11:00:14;;;;;;;2.85;1.90;;;5.60;99.90;;;;;;5056900;28;20333;-72
2021/01/01 11:02:41;;;;;;;2.67;2.15;;;5.70;99.90;;;;;;5057141;28;20204;-72
2021/01/01 11:05:08;;;;;;;5.65;2.88;;;5.60;99.90;;;;;;5057128;28;20290;-72
2021/01/01 11:07:35;;;;;;;4.70;2.40;;;5.40;99.90;;;;;;5056903;28;20227;-72
2021/01/01 11:10:01;;;;;;;3.75;2.22;;;5.40;99.90;;;;;;5056896;28;20341;-72
2021/01/01 11:12:29;;;;;;;4.43;2.22;;;5.50;99.90;;;;;;5056957;28;20218;-72
2021/01/01 11:15:19;;;;;;;3.42;2.20;;;5.50;99.90;;;;;;5056813;28;20215;-72
2021/01/01 12:21:30;;;;;;;4.70;2.63;;;6.00;99.90;;;;;;5055767;28;20241;-72
2021/01/01 12:24:17;;;;;;;4.43;2.35;;;6.10;99.90;;;;;;5055587;28;20538;-71
2021/01/01 12:26:44;;;;;;;4.50;2.28;;;6.20;99.90;;;;;;5055414;28;20199;-73
2021/01/01 12:29:11;;;;;;;3.90;2.30;;;6.20;99.90;;;;;;5055316;28;20188;-72
2021/01/01 12:31:39;;;;;;;3.45;2.08;;;6.20;99.90;;;;;;5055392;28;20298;-72
2021/01/01 12:34:07;;;;;;;4.00;2.92;;;6.10;99.90;;;;;;5055323;28;20214;-72
2021/01/01 12:36:33;;;;;;;4.53;2.25;;;6.00;99.90;;;;;;5055165;28;20237;-71
2021/01/01 12:39:00;;;;;;;2.78;2.00;;;5.70;99.90;;;;;;5055254;28;20276;-72
2021/01/01 12:41:27;;;;;;;2.95;2.60;;;5.60;99.90;;;;;;5055153;28;20317;-72
2021/01/01 12:43:53;;;;;;;4.15;2.80;;;5.60;99.90;;;;;;5055111;28;20679;-72
2021/01/01 12:46:19;;;;;;;2.58;2.10;;;5.70;99.90;;;;;;5054910;28;20291;-71
2021/01/01 12:48:46;;;;;;;3.30;2.65;;;5.90;99.90;;;;;;5054812;28;20226;-72
2021/01/01 12:51:12;;;;;;;5.88;2.88;;;6.00;99.90;;;;;;5055067;28;20299;-72
2021/01/01 12:53:39;;;;;;;4.63;2.35;;;6.10;99.90;;;;;;5055013;28;20294;-72
2021/01/01 12:56:08;;;;;;;3.35;2.20;;;6.20;99.90;;;;;;5054714;28;20273;-71
2021/01/01 12:58:34;;;;;;;3.67;2.38;;;6.20;99.90;;;;;;5054924;28;20230;-72
2021/01/01 13:01:00;;;;;;;3.05;2.47;;;6.10;99.90;;;;;;5054838;28;20199;-72
2021/01/01 13:03:27;;;;;;;4.28;2.70;;;6.00;99.90;;;;;;5054962;28;20213;-72
2021/01/01 13:05:53;;;;;;;4.00;2.70;;;6.20;99.90;;;;;;5054560;28;20629;-71
2021/01/01 13:08:19;;;;;;;4.35;2.33;;;6.20;99.90;;;;;;5054413;28;20226;-72
2021/01/01 13:10:45;;;;;;;2.88;2.47;;;6.30;99.90;;;;;;5054820;28;20394;-71
2021/01/01 13:13:13;;;;;;;5.70;3.00;;;6.20;99.90;;;;;;5054221;28;20619;-72
2021/01/01 13:15:39;;;;;;;4.60;2.42;;;6.10;99.90;;;;;;5054307;28;20223;-71
2021/01/01 13:18:06;;;;;;;4.05;2.60;;;6.10;99.90;;;;;;5054685;28;20780;-71
2021/01/01 13:20:32;;;;;;;3.97;2.20;;;6.20;99.90;;;;;;5054519;28;20296;-72
2021/01/01 13:22:59;;;;;;;3.25;2.47;;;6.10;99.90;;;;;;5054414;28;20203;-72
2021/01/01 13:25:25;;;;;;;7.20;3.10;;;5.90;99.90;;;;;;5054244;28;20298;-72
2021/01/01 13:27:53;;;;;;;3.25;2.72;;;5.80;99.90;;;;;;5053948;28;20231;-71
2021/01/01 13:30:20;;;;;;;7.95;3.20;;;5.80;99.90;;;;;;5054264;28;20229;-71
2021/01/01 13:32:47;;;;;;;3.88;2.63;;;5.70;99.90;;;;;;5054263;28;20206;-71
2021/01/01 13:35:13;;;;;;;4.80;2.80;;;5.60;99.90;;;;;;5054185;28;20305;-71
2021/01/01 13:37:40;;;;;;;4.68;2.70;;;5.70;99.90;;;;;;5053850;28;20230;-71
2021/01/01 13:40:07;;;;;;;4.03;2.45;;;5.60;99.90;;;;;;5054216;28;20203;-71
2021/01/01 13:42:34;;;;;;;5.45;2.97;;;5.50;99.90;;;;;;5054103;28;20205;-71
2021/01/01 13:45:00;;;;;;;5.95;2.97;;;5.40;99.90;;;;;;5054003;28;20209;-71
2021/01/01 13:47:27;;;;;;;5.68;3.22;;;5.50;99.90;;;;;;5053887;28;20314;-71
2021/01/01 13:49:55;;;;;;;4.43;2.83;;;5.60;99.90;;;;;;5054054;28;20290;-71
2021/01/01 13:52:22;;;;;;;4.78;3.10;;;5.60;99.90;;;;;;5053937;28;20658;-71
2021/01/01 13:54:48;;;;;;;6.13;2.92;;;5.80;99.90;;;;;;5053811;28;20234;-72
2021/01/01 13:57:14;;;;;;;8.40;3.28;;;5.80;99.90;;;;;;5053418;28;20310;-72
2021/01/01 13:59:41;;;;;;;6.45;3.47;;;5.90;99.90;;;;;;5053853;28;20203;-72